KCLM/CLM METAR and TAF weather

Enter ICAO airport designator
Station Type Date Time Source
KCLM METAR 2021/09/24 04:53 UTC NOAA

KCLM 240453Z AUTO 00000KT 10SM CLR 09/08 A3027 RMK AO2 SLP250 T00940078


Station Type Date Time Source
KCLM Decoded METAR 2021/09/24 04:53 UTC NOAA

PORT ANGELES FAIRCHILD INTERNATIONAL , WA, United States (KCLM) 48-07N 123-30W 85M
Sep 24, 2021 - 12:53 AM EDT / 2021.09.24 0453 UTC
Wind: Calm:0
Visibility: 10 mile(s):0
Sky conditions: clear
Temperature: 48.9 F (9.4 C)
Dew Point: 46.0 F (7.8 C)
Relative Humidity: 89%
Pressure (altimeter): 30.27 in. Hg (1025 hPa)
ob: KCLM 240453Z AUTO 00000KT 10SM CLR 09/08 A3027 RMK AO2 SLP250 T00940078
cycle: 5

Station Type Date Time Source
KCLM TAF 2021/09/23 18:22 UTC NOAA

TAF KCLM 231720Z 2318/2418 VRB03KT P6SM SCT120
FM232000 05005KT P6SM SCT250
FM240400 30005KT P6SM SKC
FM240700 29004KT P6SM FEW250

Example: see airport list